Time;durP1;ratioP1;P1;durP2;ratioP2;P2;SDS_P1;SDS_P2;PMS_P1;PMS_P2;Temp;Humidity;BMP_temperature;BMP_pressure;BME280_temperature;BME280_humidity;BME280_pressure;Samples;Min_cycle;Max_cycle;Signal;HPM_P1;HPM_P2
2023/06/25 00:02:00;;;;;;;2.60;1.67;;;;;;;24.45;48.61;97961.50;4936170;29;20200;-28
2023/06/25 00:04:26;;;;;;;3.97;1.97;;;;;;;24.45;48.44;97957.19;4948300;28;20287;-29
2023/06/25 00:06:53;;;;;;;1.90;1.70;;;;;;;24.46;48.43;97950.38;4954707;28;20216;-28
2023/06/25 00:09:20;;;;;;;2.00;1.80;;;;;;;24.45;48.68;97956.34;4943249;29;20214;-28
2023/06/25 00:11:47;;;;;;;1.90;1.80;;;;;;;24.43;48.86;97946.03;4936249;28;20217;-28
2023/06/25 00:14:13;;;;;;;2.10;1.93;;;;;;;24.44;48.77;97949.44;4950495;28;20710;-29
2023/06/25 00:16:40;;;;;;;1.93;1.77;;;;;;;24.44;48.78;97954.59;4950502;28;20664;-28
2023/06/25 00:19:07;;;;;;;2.23;1.83;;;;;;;24.41;48.71;97942.53;4945905;28;20632;-28
2023/06/25 00:21:34;;;;;;;2.97;2.20;;;;;;;24.43;48.83;97950.28;4952693;29;20201;-28
2023/06/25 00:24:00;;;;;;;2.10;1.90;;;;;;;24.40;48.80;97948.53;4944815;28;20220;-28
2023/06/25 00:26:27;;;;;;;2.07;1.87;;;;;;;24.41;48.96;97944.22;4955128;28;20228;-28
2023/06/25 00:28:54;;;;;;;2.27;2.00;;;;;;;24.41;48.81;97944.22;4950732;28;20231;-29
2023/06/25 00:31:21;;;;;;;2.43;2.00;;;;;;;24.41;48.86;97945.13;4942171;28;20228;-28
2023/06/25 00:33:49;;;;;;;2.87;1.97;;;;;;;24.42;48.95;97948.56;4944620;28;20228;-28
2023/06/25 00:36:15;;;;;;;1.97;1.77;;;;;;;24.40;48.96;97940.81;4940088;29;20208;-28
2023/06/25 00:38:42;;;;;;;3.60;2.20;;;;;;;24.41;48.91;97937.41;4952739;28;20692;-28
2023/06/25 00:41:10;;;;;;;2.43;2.23;;;;;;;24.39;48.98;97935.66;4946795;28;20668;-29
2023/06/25 00:43:41;;;;;;;2.10;1.90;;;;;;;24.41;49.28;97939.09;4952578;28;20228;-29
2023/06/25 00:46:12;;;;;;;2.30;2.10;;;;;;;24.40;49.08;97934.81;4948397;28;20217;-28
2023/06/25 00:48:45;;;;;;;2.33;2.03;;;;;;;24.37;49.23;97930.44;4940656;28;20220;-29
2023/06/25 00:51:16;;;;;;;2.13;1.93;;;;;;;24.41;49.03;97933.97;4933003;28;20228;-32
2023/06/25 00:53:43;;;;;;;2.17;1.97;;;;;;;24.38;49.20;97928.75;4947665;28;20227;-28
2023/06/25 00:56:11;;;;;;;2.73;1.90;;;;;;;24.41;49.68;97936.53;4924758;29;20201;-28
2023/06/25 00:58:39;;;;;;;2.40;2.10;;;;;;;24.41;49.28;97929.69;4941592;28;20201;-29
2023/06/25 01:01:26;;;;;;;2.77;1.90;;;;;;;24.39;49.14;97917.66;4947792;28;20352;-29
2023/06/25 01:03:54;;;;;;;2.03;1.90;;;;;;;24.40;49.31;97921.94;4917217;29;20270;-31
2023/06/25 01:06:29;;;;;;;1.93;1.73;;;;;;;24.40;49.50;97915.13;4938486;29;20231;-35
2023/06/25 01:08:59;;;;;;;2.20;2.00;;;;;;;24.40;49.44;97917.69;4949257;28;20257;-28
2023/06/25 01:11:27;;;;;;;2.23;1.97;;;;;;;24.39;49.71;97913.38;4937436;28;20247;-28
2023/06/25 01:13:54;;;;;;;2.90;2.13;;;;;;;24.38;49.14;97915.91;4956520;28;20279;-29
2023/06/25 01:16:20;;;;;;;2.00;1.80;;;;;;;24.36;48.94;97900.44;4953785;28;20215;-28
2023/06/25 01:18:48;;;;;;;2.40;2.17;;;;;;;24.36;49.15;97904.72;4941238;28;20200;-29
2023/06/25 01:21:29;;;;;;;2.30;2.10;;;;;;;24.37;49.39;97904.75;4932362;28;20292;-29
2023/06/25 01:23:56;;;;;;;2.80;2.00;;;;;;;24.38;49.41;97906.50;4952452;29;20227;-29
2023/06/25 01:26:23;;;;;;;2.43;2.23;;;;;;;24.40;49.20;97906.53;4946939;28;20295;-29
2023/06/25 01:28:49;;;;;;;2.00;1.90;;;;;;;24.41;49.25;97908.25;4923824;29;20212;-28
2023/06/25 01:31:16;;;;;;;1.93;1.80;;;;;;;24.38;49.20;97897.91;4952746;29;20647;-29
2023/06/25 01:33:43;;;;;;;2.00;1.90;;;;;;;24.40;49.39;97902.28;4985218;23;20227;-26
2023/06/25 01:36:09;;;;;;;2.20;2.00;;;;;;;24.40;49.75;97903.97;4989553;28;20257;-26
2023/06/25 01:38:36;;;;;;;1.97;1.70;;;;;;;24.40;49.64;97906.53;4994738;28;20207;-26
2023/06/25 01:41:02;;;;;;;2.70;2.40;;;;;;;24.39;49.28;97899.69;5000906;28;20253;-26
2023/06/25 01:43:30;;;;;;;2.27;1.87;;;;;;;24.39;49.33;97889.41;4990520;28;20227;-26
2023/06/25 01:45:57;;;;;;;2.33;2.07;;;;;;;24.38;49.34;97890.22;4975598;28;20204;-27
2023/06/25 01:48:23;;;;;;;2.57;2.17;;;;;;;24.38;49.63;97893.66;4981956;28;20278;-26
2023/06/25 01:50:50;;;;;;;2.23;2.03;;;;;;;24.38;49.66;97885.94;4980195;28;20212;-26
2023/06/25 01:53:17;;;;;;;1.97;1.87;;;;;;;24.37;49.84;97886.75;4985582;28;20223;-26
2023/06/25 01:55:43;;;;;;;2.03;1.90;;;;;;;24.38;49.61;97890.22;4984674;28;20211;-27
2023/06/25 01:58:10;;;;;;;2.30;2.10;;;;;;;24.38;49.36;97885.94;4978832;28;20212;-26
2023/06/25 02:00:37;;;;;;;1.70;1.60;;;;;;;24.38;49.70;97877.38;4974227;28;20199;-26
2023/06/25 02:03:04;;;;;;;2.40;2.20;;;;;;;24.38;49.90;97872.22;4972790;28;20274;-26
2023/06/25 02:05:30;;;;;;;1.83;1.70;;;;;;;24.38;49.72;97877.38;4975266;28;20207;-33
2023/06/25 02:07:57;;;;;;;2.20;2.00;;;;;;;24.38;49.90;97872.22;4974741;28;20207;-26
2023/06/25 02:10:24;;;;;;;2.40;2.20;;;;;;;24.37;49.81;97871.34;4974609;28;20757;-27
2023/06/25 02:12:50;;;;;;;2.40;2.20;;;;;;;24.37;49.62;97868.78;4973575;28;20631;-26
2023/06/25 02:15:17;;;;;;;2.27;2.07;;;;;;;24.38;50.03;97865.41;4977185;28;20204;-26
2023/06/25 02:17:43;;;;;;;2.60;2.40;;;;;;;24.38;50.12;97867.09;4984376;28;20249;-26
2023/06/25 02:20:11;;;;;;;2.20;2.00;;;;;;;24.38;49.88;97865.41;4985129;28;20678;-27
2023/06/25 02:22:37;;;;;;;2.23;2.03;;;;;;;24.38;50.01;97862.81;4979188;28;20207;-27
2023/06/25 02:25:04;;;;;;;2.30;2.10;;;;;;;24.38;50.04;97862.81;4985342;28;20283;-26
2023/06/25 02:27:31;;;;;;;2.50;2.30;;;;;;;24.37;49.58;97863.63;4977731;28;20562;-26
2023/06/25 02:29:57;;;;;;;2.00;1.80;;;;;;;24.37;49.70;97861.06;4973900;28;20207;-26
2023/06/25 02:32:24;;;;;;;2.13;2.00;;;;;;;24.38;49.86;97856.81;4973136;28;20227;-26
2023/06/25 02:34:50;;;;;;;2.20;2.00;;;;;;;24.37;50.06;97850.78;4980179;28;20231;-26
2023/06/25 02:37:17;;;;;;;2.30;2.10;;;;;;;24.36;50.03;97846.50;4977173;28;20207;-26
2023/06/25 02:39:44;;;;;;;1.90;1.80;;;;;;;24.36;49.75;97851.63;4980424;28;20844;-26
2023/06/25 02:42:10;;;;;;;2.10;2.00;;;;;;;24.37;49.51;97855.94;4979188;28;20227;-27
2023/06/25 02:44:37;;;;;;;1.90;1.80;;;;;;;24.37;49.06;97863.63;4974054;28;20596;-26
2023/06/25 02:47:04;;;;;;;2.87;2.00;;;;;;;24.38;49.60;97849.97;4973446;28;20239;-26
2023/06/25 02:49:31;;;;;;;2.20;2.00;;;;;;;24.39;50.19;97858.56;4972156;28;20290;-26
2023/06/25 02:51:57;;;;;;;2.20;2.00;;;;;;;24.39;50.13;97858.56;4973312;28;20578;-26
2023/06/25 02:54:24;;;;;;;2.20;2.00;;;;;;;24.38;50.08;97857.69;4974883;28;20245;-26
2023/06/25 02:56:52;;;;;;;2.10;2.00;;;;;;;24.38;50.27;97849.97;4984682;28;20233;-26
2023/06/25 02:59:19;;;;;;;2.40;2.20;;;;;;;24.38;49.88;97855.13;4986737;28;20207;-26
2023/06/25 03:01:46;;;;;;;2.17;2.00;;;;;;;24.38;50.07;97846.53;4976133;28;20199;-26
2023/06/25 03:04:12;;;;;;;2.40;2.20;;;;;;;24.36;49.89;97851.63;4976809;28;20223;-27
2023/06/25 03:06:39;;;;;;;2.30;2.00;;;;;;;24.37;49.99;97853.34;4982724;28;20203;-26
2023/06/25 03:09:07;;;;;;;2.10;2.00;;;;;;;24.38;49.95;97849.09;4973876;28;20235;-26
2023/06/25 03:11:34;;;;;;;2.33;2.10;;;;;;;24.38;49.87;97849.09;4972333;28;20330;-28
2023/06/25 03:14:01;;;;;;;2.30;2.13;;;;;;;24.37;50.50;97849.94;4972832;28;20732;-26
2023/06/25 03:16:27;;;;;;;2.83;2.40;;;;;;;24.36;50.50;97845.63;4975111;28;20222;-26
2023/06/25 03:18:54;;;;;;;2.23;2.03;;;;;;;24.36;50.29;97851.63;4973389;28;20208;-26
2023/06/25 03:21:21;;;;;;;2.30;2.03;;;;;;;24.37;50.35;97842.25;4972194;28;20208;-26
2023/06/25 03:23:47;;;;;;;2.20;2.00;;;;;;;24.36;50.19;97843.94;4984366;28;20223;-26
2023/06/25 03:26:14;;;;;;;2.13;2.00;;;;;;;24.36;50.38;97841.34;4973796;28;20258;-26
2023/06/25 03:28:41;;;;;;;2.20;2.00;;;;;;;24.36;50.38;97838.78;4979068;28;20697;-27
2023/06/25 03:31:07;;;;;;;2.10;2.00;;;;;;;24.37;50.62;97840.50;4975423;28;20316;-26
2023/06/25 03:33:34;;;;;;;2.87;2.43;;;;;;;24.35;50.24;97839.63;4981184;28;20235;-32
2023/06/25 03:36:00;;;;;;;2.53;2.33;;;;;;;24.34;50.24;97837.88;4981471;28;20203;-26
2023/06/25 03:38:27;;;;;;;2.30;2.10;;;;;;;24.33;50.21;97838.72;4971011;28;20630;-26
2023/06/25 03:40:54;;;;;;;3.33;2.13;;;;;;;24.36;50.24;97841.34;4975931;28;20207;-26
2023/06/25 03:43:20;;;;;;;2.23;2.03;;;;;;;24.36;50.47;97830.19;4975172;28;20223;-26
2023/06/25 03:45:47;;;;;;;1.97;1.87;;;;;;;24.36;50.54;97830.19;4975147;28;20202;-26
2023/06/25 03:48:13;;;;;;;2.30;2.10;;;;;;;24.36;50.55;97833.66;4983387;28;20250;-26
2023/06/25 03:50:40;;;;;;;2.30;2.10;;;;;;;24.35;50.30;97831.94;4984843;28;20202;-27
2023/06/25 03:53:08;;;;;;;2.00;1.90;;;;;;;24.35;50.08;97831.06;4971398;28;20294;-27
2023/06/25 03:55:35;;;;;;;2.30;2.10;;;;;;;24.36;49.99;97830.19;4976002;28;20203;-26
2023/06/25 03:58:02;;;;;;;2.37;2.17;;;;;;;24.35;50.04;97831.94;4974149;28;20207;-26
2023/06/25 04:00:28;;;;;;;2.30;2.10;;;;;;;24.35;50.37;97838.75;4971988;28;20212;-26
2023/06/25 04:02:55;;;;;;;2.70;2.33;;;;;;;24.36;50.38;97837.91;4979883;28;20231;-26
2023/06/25 04:05:22;;;;;;;2.20;2.00;;;;;;;24.37;50.11;97837.94;4980167;28;20207;-26
2023/06/25 04:07:48;;;;;;;2.60;2.40;;;;;;;24.37;50.62;97840.50;4974298;28;20203;-26
2023/06/25 04:10:15;;;;;;;2.17;1.97;;;;;;;24.38;50.38;97836.25;4972740;28;20203;-26
2023/06/25 04:12:41;;;;;;;2.30;2.10;;;;;;;24.37;50.32;97840.50;4974990;28;20270;-26
2023/06/25 04:15:08;;;;;;;2.37;2.17;;;;;;;24.36;50.30;97841.34;4976538;28;20266;-26
2023/06/25 04:17:35;;;;;;;2.20;2.00;;;;;;;24.38;50.37;97836.25;4973277;28;20208;-26
2023/06/25 04:20:02;;;;;;;2.20;2.00;;;;;;;24.37;50.30;97837.09;4965960;28;20282;-26
2023/06/25 04:22:29;;;;;;;2.47;2.20;;;;;;;24.37;50.68;97844.81;4969304;28;20204;-32
2023/06/25 04:24:55;;;;;;;2.67;2.20;;;;;;;24.35;50.46;97833.63;4971230;28;20255;-26
2023/06/25 04:27:22;;;;;;;2.50;2.30;;;;;;;24.37;50.33;97835.38;4977712;28;20675;-26
2023/06/25 04:29:49;;;;;;;2.50;2.30;;;;;;;24.36;50.53;97833.66;4983146;28;20548;-26
2023/06/25 04:32:16;;;;;;;2.50;2.30;;;;;;;24.36;50.70;97841.34;4976724;28;20314;-26
2023/06/25 04:34:43;;;;;;;2.20;2.00;;;;;;;24.35;50.61;97839.63;4977499;28;20258;-27
2023/06/25 04:37:09;;;;;;;2.57;2.37;;;;;;;24.36;50.77;97832.78;4983337;28;20798;-26
2023/06/25 04:39:36;;;;;;;2.27;2.07;;;;;;;24.36;50.43;97833.66;4982070;28;20274;-34
2023/06/25 04:42:02;;;;;;;2.60;2.37;;;;;;;24.36;50.40;97838.78;4976985;28;20286;-26
2023/06/25 04:44:29;;;;;;;2.50;2.30;;;;;;;24.35;50.90;97834.50;4974227;28;20224;-26
2023/06/25 04:46:56;;;;;;;2.83;2.57;;;;;;;24.37;50.73;97830.25;4978548;28;20207;-27
2023/06/25 04:49:22;;;;;;;2.60;2.27;;;;;;;24.36;50.28;97833.66;4983719;28;20254;-26
2023/06/25 04:51:49;;;;;;;2.20;2.10;;;;;;;24.38;50.83;97836.25;4979752;28;20678;-26
2023/06/25 04:54:15;;;;;;;2.50;2.30;;;;;;;24.37;50.44;97837.09;4971984;28;20223;-27
2023/06/25 04:56:42;;;;;;;2.97;2.67;;;;;;;24.37;50.73;97842.25;4975794;28;20208;-26
2023/06/25 04:59:08;;;;;;;2.50;2.30;;;;;;;24.37;50.31;97842.25;4969901;28;20210;-28
2023/06/25 05:01:35;;;;;;;2.70;2.50;;;;;;;24.37;50.27;97840.50;4965545;28;20352;-28
2023/06/25 05:04:02;;;;;;;2.70;2.50;;;;;;;24.37;50.59;97842.25;4964354;28;20231;-26
2023/06/25 05:06:28;;;;;;;2.43;2.23;;;;;;;24.37;50.53;97837.09;4965985;28;20259;-26
2023/06/25 05:08:56;;;;;;;2.70;2.50;;;;;;;24.38;50.63;97843.97;4962233;28;20216;-26
2023/06/25 05:11:22;;;;;;;2.53;2.33;;;;;;;24.37;50.71;97837.09;4959728;28;20235;-26
2023/06/25 05:13:49;;;;;;;2.50;2.30;;;;;;;24.37;50.23;97835.38;4961336;28;20231;-26
2023/06/25 05:16:15;;;;;;;3.07;2.40;;;;;;;24.38;50.70;97834.56;4961322;28;20352;-27
2023/06/25 05:18:42;;;;;;;2.70;2.50;;;;;;;24.38;50.56;97841.41;4966468;28;20275;-32
2023/06/25 05:21:09;;;;;;;2.80;2.60;;;;;;;24.36;50.15;97846.50;4966848;28;20212;-27
2023/06/25 05:23:42;;;;;;;2.70;2.50;;;;;;;24.38;50.37;97851.66;4965156;28;20644;-27
2023/06/25 05:26:09;;;;;;;2.50;2.30;;;;;;;24.35;50.73;97842.22;4966229;28;20204;-34
2023/06/25 05:28:35;;;;;;;2.87;2.67;;;;;;;24.37;50.75;97840.50;4967981;28;20214;-32
2023/06/25 05:31:02;;;;;;;2.50;2.30;;;;;;;24.37;50.12;97837.94;4966228;28;20271;-26
2023/06/25 05:33:28;;;;;;;2.47;2.27;;;;;;;24.37;50.67;97837.09;4965611;28;20227;-27
2023/06/25 05:35:55;;;;;;;3.10;2.80;;;;;;;24.37;50.22;97837.94;4965328;28;20215;-27
2023/06/25 05:38:22;;;;;;;2.70;2.50;;;;;;;24.38;50.71;97836.25;4967207;28;20212;-27
2023/06/25 05:40:48;;;;;;;2.80;2.60;;;;;;;24.38;50.27;97833.69;4963360;28;20247;-26
2023/06/25 05:43:15;;;;;;;2.80;2.60;;;;;;;24.40;50.55;97842.31;4967048;28;20224;-26
2023/06/25 05:45:41;;;;;;;2.83;2.63;;;;;;;24.38;50.54;97831.13;4964956;28;20585;-26
2023/06/25 05:48:08;;;;;;;2.97;2.67;;;;;;;24.42;50.44;97835.50;4967420;28;20204;-26
2023/06/25 05:50:35;;;;;;;3.13;2.43;;;;;;;24.42;49.98;97838.94;4965943;28;20207;-26
2023/06/25 05:53:01;;;;;;;2.70;2.50;;;;;;;24.43;50.03;97835.56;4966130;28;20262;-26
2023/06/25 05:55:28;;;;;;;2.80;2.60;;;;;;;24.44;50.54;97837.28;4966354;28;20206;-26
2023/06/25 05:57:54;;;;;;;2.90;2.70;;;;;;;24.44;50.34;97839.84;4965059;28;20216;-27
2023/06/25 06:00:23;;;;;;;3.00;2.80;;;;;;;24.46;50.00;97832.16;4966823;28;20374;-30
2023/06/25 06:02:49;;;;;;;2.60;2.40;;;;;;;24.46;49.82;97827.03;4962409;28;20214;-26
2023/06/25 06:05:16;;;;;;;2.90;2.70;;;;;;;24.46;49.88;97830.47;4965126;28;20728;-27
2023/06/25 06:07:42;;;;;;;2.97;2.77;;;;;;;24.48;50.13;97827.94;4965210;28;20203;-29
2023/06/25 06:10:12;;;;;;;2.80;2.60;;;;;;;24.46;49.87;97827.91;4962626;28;20203;-26
2023/06/25 06:12:38;;;;;;;3.10;2.90;;;;;;;24.49;50.34;97824.53;4964626;28;20239;-26
2023/06/25 06:15:06;;;;;;;2.90;2.70;;;;;;;24.50;50.05;97818.56;4965812;28;20235;-26
2023/06/25 06:17:32;;;;;;;2.97;2.77;;;;;;;24.50;49.95;97819.44;4961434;28;20261;-26
2023/06/25 06:19:59;;;;;;;2.70;2.50;;;;;;;24.49;50.00;97819.41;4966425;28;20694;-26
2023/06/25 06:22:25;;;;;;;2.80;2.60;;;;;;;24.51;50.03;97818.59;4965407;28;20313;-26
2023/06/25 06:24:52;;;;;;;3.67;2.90;;;;;;;24.52;49.74;97817.78;4964130;28;20286;-26
2023/06/25 06:27:19;;;;;;;3.03;2.80;;;;;;;24.52;50.02;97822.91;4965650;28;20324;-27
2023/06/25 06:29:46;;;;;;;2.97;2.77;;;;;;;24.54;49.94;97833.22;4964336;28;20200;-27
2023/06/25 06:32:12;;;;;;;3.10;2.80;;;;;;;24.55;50.22;97827.25;4964824;28;20216;-27
2023/06/25 06:34:40;;;;;;;3.10;2.90;;;;;;;24.54;49.70;97826.34;4966591;28;20709;-26
2023/06/25 06:37:06;;;;;;;2.80;2.60;;;;;;;24.55;49.91;97825.53;4964352;28;20293;-27
2023/06/25 06:39:33;;;;;;;4.07;2.80;;;;;;;24.55;49.79;97820.41;4963214;28;20479;-31
2023/06/25 06:42:00;;;;;;;2.83;2.63;;;;;;;24.56;50.23;97824.69;4966246;28;20231;-26
2023/06/25 06:44:26;;;;;;;3.10;2.80;;;;;;;24.57;50.08;97823.00;4980742;28;20226;-26
2023/06/25 06:46:54;;;;;;;3.83;3.10;;;;;;;24.57;50.23;97818.72;4977656;28;20240;-29
2023/06/25 06:49:20;;;;;;;3.80;3.40;;;;;;;24.57;49.98;97813.56;4965836;28;20690;-27
2023/06/25 06:51:47;;;;;;;3.60;3.30;;;;;;;24.58;49.79;97817.03;4966884;28;20674;-36
2023/06/25 06:54:14;;;;;;;4.33;3.10;;;;;;;24.55;49.69;97802.41;4963558;28;20228;-27
2023/06/25 06:56:40;;;;;;;3.50;3.20;;;;;;;24.58;49.98;97817.03;4963345;28;20211;-26
2023/06/25 06:59:07;;;;;;;3.07;2.80;;;;;;;24.59;50.02;97808.47;4964096;28;20211;-31
2023/06/25 07:01:34;;;;;;;4.93;3.30;;;;;;;24.59;50.14;97813.59;4963414;28;20285;-27
2023/06/25 07:04:01;;;;;;;3.60;3.30;;;;;;;24.59;49.71;97808.47;4964773;28;20216;-26
2023/06/25 07:06:27;;;;;;;2.90;2.70;;;;;;;24.59;49.78;97811.91;4964530;28;20207;-26
2023/06/25 07:08:54;;;;;;;2.97;2.77;;;;;;;24.59;50.08;97809.34;4963652;28;20212;-32
2023/06/25 07:11:20;;;;;;;3.00;2.80;;;;;;;24.60;50.14;97807.66;4966243;28;20267;-26
2023/06/25 07:13:47;;;;;;;3.10;2.90;;;;;;;24.60;50.04;97805.94;4964978;28;20676;-27
2023/06/25 07:16:14;;;;;;;3.00;2.80;;;;;;;24.61;49.77;97809.38;4964566;28;20304;-26
2023/06/25 07:18:40;;;;;;;3.10;2.90;;;;;;;24.61;49.88;97811.94;4945471;28;20199;-26
2023/06/25 07:21:07;;;;;;;3.70;3.40;;;;;;;24.62;49.92;97808.53;4965916;28;20588;-35
2023/06/25 07:23:35;;;;;;;3.27;3.07;;;;;;;24.63;49.91;97812.88;4964954;28;20231;-27
2023/06/25 07:26:02;;;;;;;3.30;3.00;;;;;;;24.59;50.11;97791.34;4962666;28;20599;-26
2023/06/25 07:28:29;;;;;;;3.03;2.73;;;;;;;24.62;49.56;97803.41;4965638;28;22624;-26
2023/06/25 07:30:56;;;;;;;3.13;2.93;;;;;;;24.62;49.96;97803.41;4962344;28;20646;-30
2023/06/25 07:35:50;;;;;;;3.20;2.90;;;;;;;24.63;50.07;97797.44;4938127;28;20806;-28
2023/06/25 07:38:17;;;;;;;3.03;2.80;;;;;;;24.64;50.03;97796.59;4937174;29;20215;-28
2023/06/25 07:40:43;;;;;;;3.03;2.83;;;;;;;24.63;49.73;97790.56;4940010;28;20691;-27
2023/06/25 07:43:11;;;;;;;3.40;3.10;;;;;;;24.64;49.59;97786.31;4940115;28;20270;-28
2023/06/25 07:45:38;;;;;;;3.27;2.97;;;;;;;24.64;49.65;97783.75;4919480;28;20227;-28
2023/06/25 07:48:06;;;;;;;3.23;2.93;;;;;;;24.64;49.75;97778.59;4921991;28;20219;-28
2023/06/25 07:50:33;;;;;;;3.33;2.90;;;;;;;24.63;49.79;97785.44;4937674;28;20204;-28
2023/06/25 07:53:00;;;;;;;3.30;3.00;;;;;;;24.65;49.76;97788.06;4938968;28;20208;-28
2023/06/25 07:55:26;;;;;;;2.87;2.67;;;;;;;24.64;49.57;97784.63;4939689;28;20233;-28
2023/06/25 07:57:53;;;;;;;3.03;2.83;;;;;;;24.64;49.61;97782.06;4938543;28;20266;-27
2023/06/25 08:00:20;;;;;;;2.97;2.77;;;;;;;24.64;49.92;97787.19;4940627;28;20240;-28
2023/06/25 08:02:48;;;;;;;2.70;2.50;;;;;;;24.64;50.00;97784.63;4938417;28;20212;-28
2023/06/25 08:05:15;;;;;;;2.63;2.43;;;;;;;24.65;50.07;97785.50;4940578;28;20228;-28
2023/06/25 08:07:42;;;;;;;3.90;2.67;;;;;;;24.65;49.96;97788.94;4937089;28;20208;-28
2023/06/25 08:10:09;;;;;;;2.90;2.70;;;;;;;24.65;49.89;97786.38;4939411;28;20219;-28
2023/06/25 08:12:36;;;;;;;2.73;2.50;;;;;;;24.65;49.93;97786.38;4938440;28;20299;-28
2023/06/25 08:15:03;;;;;;;3.20;2.90;;;;;;;24.66;49.73;97787.25;4942662;28;20236;-28
2023/06/25 08:17:30;;;;;;;2.83;2.63;;;;;;;24.66;49.61;97782.13;4945085;28;20212;-28
2023/06/25 08:19:56;;;;;;;3.17;2.90;;;;;;;24.66;49.98;97782.97;4943872;28;20227;-27
2023/06/25 08:22:23;;;;;;;2.87;2.67;;;;;;;24.48;49.50;97749.13;4942631;28;20212;-28
2023/06/25 08:24:50;;;;;;;2.80;2.60;;;;;;;24.64;49.80;97779.50;4945071;28;20224;-27
2023/06/25 08:27:17;;;;;;;3.10;2.90;;;;;;;24.63;49.60;97782.03;4945650;28;20208;-27
2023/06/25 08:29:43;;;;;;;2.80;2.60;;;;;;;24.61;49.89;97781.13;4924259;28;20264;-28
2023/06/25 08:32:10;;;;;;;3.43;3.13;;;;;;;24.60;49.78;97764.81;4941135;28;20217;-25
2023/06/25 08:34:37;;;;;;;3.23;3.03;;;;;;;24.59;49.96;97778.50;4944184;28;20236;-27
2023/06/25 08:37:04;;;;;;;3.17;2.97;;;;;;;24.58;50.21;97773.34;4943401;28;20215;-28
2023/06/25 08:39:31;;;;;;;5.73;5.23;;;;;;;24.58;50.15;97776.78;4945210;28;20233;-27
2023/06/25 08:41:58;;;;;;;7.20;6.10;;;;;;;24.57;50.31;97775.03;4944283;28;20593;-28
2023/06/25 08:44:24;;;;;;;6.13;5.63;;;;;;;24.56;50.25;97772.44;4941900;28;20220;-28
2023/06/25 08:46:51;;;;;;;11.73;5.30;;;;;;;24.56;49.95;97775.00;4945513;28;20231;-28
2023/06/25 08:49:18;;;;;;;5.70;5.20;;;;;;;24.55;50.13;97770.69;4919290;29;20208;-27
2023/06/25 08:51:44;;;;;;;5.50;5.07;;;;;;;24.54;50.20;97764.69;4929859;28;20252;-28
2023/06/25 08:54:11;;;;;;;5.60;5.10;;;;;;;24.54;50.02;97774.13;4951283;28;20260;-28
2023/06/25 08:56:37;;;;;;;5.63;5.13;;;;;;;24.53;49.97;97762.09;4923805;29;20266;-27
2023/06/25 08:59:04;;;;;;;5.80;5.30;;;;;;;24.52;50.14;97766.38;4941766;28;20211;-28
2023/06/25 09:01:31;;;;;;;5.47;4.97;;;;;;;24.52;50.28;97765.50;4947507;28;20587;-27
2023/06/25 09:03:57;;;;;;;6.00;5.40;;;;;;;24.53;49.97;97762.09;4955909;28;20232;-28
2023/06/25 09:06:26;;;;;;;5.53;5.03;;;;;;;24.53;50.23;97764.66;4945083;28;20212;-28
2023/06/25 09:08:53;;;;;;;5.97;5.47;;;;;;;24.51;50.03;97759.47;4950161;28;20211;-28
2023/06/25 09:11:19;;;;;;;5.50;5.00;;;;;;;24.52;50.19;97762.94;4943795;28;20212;-30
2023/06/25 09:13:46;;;;;;;8.37;5.87;;;;;;;24.51;50.42;97754.34;4947348;28;20600;-28
2023/06/25 09:16:12;;;;;;;7.47;5.27;;;;;;;24.54;50.05;97758.69;4944918;28;20210;-28
2023/06/25 09:18:39;;;;;;;7.60;5.73;;;;;;;24.52;50.14;97758.66;4952736;28;20208;-28
2023/06/25 09:21:07;;;;;;;5.67;5.17;;;;;;;24.53;50.49;97760.41;4952842;28;20685;-28
2023/06/25 09:23:35;;;;;;;5.83;5.30;;;;;;;24.54;50.36;97767.25;4942195;28;20204;-28
2023/06/25 09:26:06;;;;;;;5.63;5.10;;;;;;;24.54;50.33;97762.13;4942111;28;20208;-28
2023/06/25 09:28:59;;;;;;;8.37;5.60;;;;;;;24.55;50.41;97756.16;4951589;28;20205;-28
2023/06/25 09:31:26;;;;;;;12.33;5.30;;;;;;;24.56;50.37;97762.16;4955038;28;20210;-28
2023/06/25 09:33:53;;;;;;;5.57;5.07;;;;;;;24.56;50.56;97762.16;4948098;28;20223;-29
2023/06/25 09:36:19;;;;;;;6.17;4.80;;;;;;;24.56;50.05;97747.59;4945098;28;20213;-28
2023/06/25 09:38:52;;;;;;;5.27;4.77;;;;;;;24.57;50.06;97749.34;4945609;28;20750;-28
2023/06/25 09:41:19;;;;;;;6.20;5.50;;;;;;;24.55;50.26;97745.88;4932947;29;20259;-28
2023/06/25 09:43:45;;;;;;;5.83;5.23;;;;;;;24.56;50.27;97750.19;4933033;28;20236;-27
2023/06/25 09:46:13;;;;;;;5.30;4.80;;;;;;;24.58;50.08;97745.94;4929693;29;20675;-28
2023/06/25 09:48:39;;;;;;;5.47;4.97;;;;;;;24.58;50.20;97745.94;4949533;28;20231;-28
2023/06/25 09:51:06;;;;;;;4.70;4.30;;;;;;;24.57;50.20;97733.91;4919942;28;20205;-27
2023/06/25 09:53:33;;;;;;;5.50;5.00;;;;;;;24.60;50.28;97738.28;4918044;29;20204;-28
2023/06/25 09:56:00;;;;;;;5.17;4.67;;;;;;;24.59;50.38;97732.25;4913230;28;20211;-28
2023/06/25 09:58:27;;;;;;;5.50;5.00;;;;;;;24.57;50.06;97726.19;4918473;29;20212;-28
2023/06/25 10:00:54;;;;;;;4.70;4.30;;;;;;;24.61;50.10;97734.84;4917121;28;20267;-27
2023/06/25 10:03:21;;;;;;;5.37;4.83;;;;;;;24.61;49.86;97734.84;4937960;29;20628;-28
2023/06/25 10:05:51;;;;;;;4.67;4.27;;;;;;;24.59;49.98;97728.81;4931888;28;20487;-28
2023/06/25 10:08:19;;;;;;;4.80;4.30;;;;;;;24.56;50.26;97721.03;4916445;29;20227;-28
2023/06/25 10:11:04;;;;;;;5.17;4.67;;;;;;;24.56;50.21;97723.59;4933715;28;20203;-28
2023/06/25 10:13:31;;;;;;;5.00;4.60;;;;;;;24.58;50.45;97739.94;4951367;28;20215;-28
2023/06/25 10:16:02;;;;;;;5.07;4.67;;;;;;;24.57;50.16;97733.06;4930254;28;20259;-28
2023/06/25 10:18:29;;;;;;;4.97;4.47;;;;;;;24.56;50.01;97728.75;4942518;28;20578;-27
2023/06/25 10:20:57;;;;;;;4.57;4.17;;;;;;;24.56;50.16;97733.88;4953562;28;20243;-27
2023/06/25 10:23:24;;;;;;;6.00;4.60;;;;;;;24.55;50.52;97724.44;4947908;28;20212;-28
2023/06/25 10:25:57;;;;;;;4.47;4.00;;;;;;;24.54;50.27;97725.28;4948875;28;20208;-28
2023/06/25 10:28:36;;;;;;;4.43;4.03;;;;;;;24.53;50.07;97727.00;4948809;28;20621;-28
2023/06/25 10:31:13;;;;;;;4.90;4.50;;;;;;;24.53;50.03;97724.41;4946415;28;20259;-28
2023/06/25 10:33:40;;;;;;;3.90;3.60;;;;;;;24.52;50.20;97721.81;4942298;28;20236;-27
2023/06/25 10:36:08;;;;;;;4.73;4.33;;;;;;;24.51;50.58;97731.22;4948996;28;20204;-27
2023/06/25 10:38:35;;;;;;;5.00;4.60;;;;;;;24.50;50.46;97729.50;4947879;28;20215;-28
2023/06/25 10:41:01;;;;;;;4.47;4.13;;;;;;;24.50;50.10;97724.34;4950221;28;20208;-27
2023/06/25 10:43:28;;;;;;;4.77;4.37;;;;;;;24.50;50.63;97721.78;4941333;28;20253;-28
2023/06/25 10:45:56;;;;;;;4.57;4.17;;;;;;;24.49;50.22;97717.50;4945831;28;20354;-28
2023/06/25 10:48:23;;;;;;;4.40;4.00;;;;;;;24.49;50.27;97717.50;4938449;28;20552;-28
2023/06/25 10:50:51;;;;;;;4.23;3.93;;;;;;;24.51;50.13;97715.81;4930894;28;20628;-28
2023/06/25 10:53:19;;;;;;;4.13;3.67;;;;;;;24.50;50.43;97714.06;4937845;28;20244;-28
2023/06/25 10:55:47;;;;;;;4.40;4.00;;;;;;;24.52;50.12;97716.69;4945829;28;20275;-25
2023/06/25 10:58:18;;;;;;;4.73;4.00;;;;;;;24.51;50.57;97710.66;4946719;28;20212;-28
2023/06/25 11:00:45;;;;;;;4.03;3.73;;;;;;;24.52;50.20;97703.84;4950538;28;20219;-28
2023/06/25 11:03:12;;;;;;;4.23;3.93;;;;;;;24.52;50.49;97707.28;4947064;28;20656;-28
2023/06/25 11:05:42;;;;;;;4.03;3.73;;;;;;;24.53;50.24;97700.41;4942593;28;20216;-28
2023/06/25 11:08:09;;;;;;;4.33;3.93;;;;;;;24.53;50.19;97691.00;4943124;28;20296;-28
2023/06/25 11:10:36;;;;;;;4.53;4.13;;;;;;;24.54;50.09;97697.03;4948544;28;20208;-28
2023/06/25 11:13:03;;;;;;;3.77;3.47;;;;;;;24.54;50.45;97699.59;4949442;28;20212;-28
2023/06/25 11:15:31;;;;;;;4.23;3.83;;;;;;;24.55;49.99;97696.19;4945633;28;20263;-28
2023/06/25 11:17:58;;;;;;;4.17;3.87;;;;;;;24.56;50.25;97695.34;4938627;28;20284;-28
2023/06/25 11:20:25;;;;;;;6.37;5.17;;;;;;;24.57;50.22;97690.22;4942785;28;20217;-28
2023/06/25 11:22:58;;;;;;;9.40;6.57;;;;;;;24.57;50.76;97682.50;4946421;28;20215;-28
2023/06/25 11:25:25;;;;;;;9.97;6.10;;;;;;;24.58;50.98;97683.41;4951382;28;20782;-28
2023/06/25 11:28:04;;;;;;;8.53;6.07;;;;;;;24.58;50.64;97696.25;4946519;28;20212;-28
2023/06/25 11:30:31;;;;;;;11.37;7.07;;;;;;;24.59;50.71;97688.56;4945118;28;20227;-28
2023/06/25 11:33:17;;;;;;;8.80;6.03;;;;;;;24.59;50.52;97691.13;4943149;28;20200;-28
2023/06/25 11:35:49;;;;;;;9.80;5.43;;;;;;;24.60;50.84;97676.59;4948341;28;20227;-28
2023/06/25 11:38:26;;;;;;;7.17;5.33;;;;;;;24.59;50.43;97688.56;4938085;28;20221;-28